Aviation Digital Data Service (ADDS)

Output produced by METARs form (1940 UTC 09 December 2018)
found at http://www.aviationweather.gov/metar/data/
 
VEAT 091400Z 00000KT 5000 BR NSC 17/15 Q1013 NOSIG
VAAH 091930Z 00000KT 4000 FU NSC 17/09 Q1012 NOSIG
TAF VAAH 091700Z 0918/1024 VRB03KT 4000 HZ NSC 
     BECMG 1001/1003 03005KT 2000 BR HZ 
     BECMG 1004/1006 05007KT 5000 FU 
     BECMG 1012/1014 34003KT 4000 FU HZ
       
VIAR 091930Z VRB00KT 1800 BR SCT040 13/11 Q1014 BECMG 1500
TAF VIAR 091700Z 0918/1024 00000KT 1800 BR SCT100 
     BECMG 1000/1002 VRB02KT 0800 MIFG FEW035 SCT100 
     BECMG 1006/1008 35006KT 3000 HZ SCT035 BKN100 
     TEMPO 1006/1012 1200 TSRA FEW040CB OVC080 
     BECMG 1018/1020 VRB02KT 1800 BR
       
VAAU 091800Z 00000KT 6000 NSC 22/14 Q1014 NOSIG
VOBG 091800Z 07007KT 4000 BR NSC 20/18 Q1017
TAF VOBG 091700Z 0918/1003 VRB03KT 4000 BR FEW010 
     BECMG 0922/0923 1500 BR SCT008 
     TEMPO 1000/1003 0800 FG BKN006
       
VABV 091400Z 34003KT 3000 FU NSC 24/14 Q1011
VABP 091900Z 08006KT 5000 HZ NSC 17/08 Q1014 NOSIG
VEBS 091930Z 00000KT 2000 BR NSC 17/14 Q1013 NOSIG
VERC 091900Z 00000KT 2500 HZ NSC 11/07 Q1016 NOSIG
VOCL 091930Z 12003KT 4000 BR FEW015 26/24 Q1011 TEMPO 3000 BR
TAF VOCL 091700Z 0918/1024 17005KT 4000 HZ SCT015 BKN090 
     TEMPO 0923/1003 2000 BR FEW025CB 
     BECMG 1005/1006 33010KT 5000 HZ 
     TEMPO 1009/1012 2000 TSRA RA SCT010 FEW025CB BKN090 
     BECMG 1017/1018 16005KT 4000 HZ
       
VOMM 091930Z 04002KT 4000 BR FEW020 SCT100 24/22 Q1013 NOSIG
TAF VOMM 091700Z 0918/1024 VRB02KT 3000 BR FEW020 SCT100 
     BECMG 0921/0922 1500 BR 
     TEMPO 1000/1003 0800 FG 
     BECMG 1003/1004 05010KT 3000 BR 
     BECMG 1006/1007 5000 HZ 
     BECMG 1018/1019 VRB02KT 3000 BR 
     BECMG 1021/1022 1500 BR
       
VABB 091930Z 00000KT 2500 FU NSC 25/15 Q1011 NOSIG
TAF VABB 091700Z 0918/1024 04005KT 3000 FU FEW100 
     TEMPO 1001/1005 2000 HZ FU 
     BECMG 1006/1008 31008KT 
     BECMG 1009/1011 4000 FU 
     BECMG 1016/1018 04005KT 3000 FU
       
VOCI 091930Z 00000KT 3000 BR FEW015 SCT090 26/24 Q1012 NOSIG
TAF VOCI 091700Z 0918/1024 00000KT 4000 HZ SCT015 BKN090 
     TEMPO 0923/1003 2000 BR FEW025CB 
     BECMG 1005/1006 25010KT 5000 HZ 
     TEMPO 1009/1012 2000 TSRA RA SCT010 FEW025CB BKN090 
     BECMG 1017/1018 VRB03KT 4000 HZ
       
VOCB 091930Z 11005KT 2000 BR FEW015 23/20 Q1014 NOSIG
TAF VOCB 091700Z 0918/1024 07005KT 3000 BR FEW015 SCT080 
     TEMPO 1000/1003 1500 BR 
     BECMG 1009/1010 5000 HZ 
     BECMG 1018/1019 3000 BR
       
VIDN 091430Z 07004KT 2000 BR NSC 13/10 Q1015
VAID 091800Z 07004KT 3000 HZ NSC 19/11 Q1014 NOSIG
VEGT 091930Z 00000KT 2500 BR FEW018 SCT100 16/15 Q1013 NOSIG
VOHY 091530Z VRB03KT 5000 HZ FEW015 SCT100 26/21 Q1016 NOSIG
VIDP 091930Z 00000KT 1800 R28/P2000 R29/P2000 BR NSC 12/09 Q1014 NOSIG
TAF VIDP 091700Z 0918/1024 00000KT 2000 HZ BR NSC 
     BECMG 1000/1002 13005KT 0800 MIFG 
     BECMG 1004/1006 1200 BR HZ FEW100 
     BECMG 1008/1010 3000 HZ -RA FEW040 SCT100 
     BECMG 1020/1022 1800 BR SCT040 BKN100
       
VIJP 091930Z 00000KT 2000 HZ NSC 14/06 Q1014 NOSIG
TAF VIJP 091700Z 0918/1024 00000KT 2000 FU NSC 
     BECMG 1000/1002 00000KT 1500 FU 
     BECMG 1004/1006 12005KT 3000 HZ SCT100 
     BECMG 1011/1013 VRB02K 2000HZ SCT030 SCT100
       
VILK 091930Z VRB02KT 1800 R27/2000 RMID/2000 R09/2000 BR NSC 12/09 Q1014 NOSIG
TAF VILK 091700Z 0918/1024 VRB02KT 1600 BR HZ NSC 
     BECMG 0920/0922 1100 BR 
     BECMG 1000/1002 00000KT 0600 MIFG 
     BECMG 1004/1006 34004KT 1500 BR 
     BECMG 1007/1009 3000 HZ 
     BECMG 1013/1015 00000KT 1500 BR HZ
       
VOMD 091900Z 00000KT 3000 BR NSC 25/23 Q1013 NOSIG
TAF VOMD 091700Z 0918/1024 VRB02KT 3000 BR FEW018 SCT100 
     TEMPO 1000/1003 1500 BR 
     BECMG 1006/1007 05005KT 4000 HZ 
     BECMG 1015/1016 VRB02KT 3000 BR
       
VOML 091930Z 00000KT 6000 NSC 27/25 Q1011 NOSIG
TAF VOML 091700Z 0918/1024 VRB02KT 6000 FEW015 
     BECMG 0921/0922 3000 BR FEW010 
     TEMPO 1000/1003 1500 BR SCT008 
     BECMG 1003/1004 6000 FEW015 
     BECMG 1008/1009 27010KT 
     BECMG 1015/1016 VRB02KT
       
VANP 091930Z 00000KT 1500 BR FEW020 FEW030CB SCT100 21/19 Q1012 NOSIG
TAF VANP 091700Z 0918/1024 05003KT 1500 -RA HZ SCT020 BKN100 
     TEMPO 1000/1004 32015G25KT 1000 TSRA SCT015 SCT020 FEW030CB BKN090 
     BECMG 1004/1006 12003KT 1500 -RA HZ SCT020 BKN100 
     TEMPO 1010/1014 32015G25KT 1000 TSRA SCT015 SCT020 FEW030CB BKN090 
     BECMG 1012/1014 05003KT 2000 HZ SCT020 BKN100
       
VECC 091930Z 00000KT 2200 BR NSC 15/12 Q1013 NOSIG
TAF VECC 091400Z 0915/0924 00000KT 3000 HZ NSC 
     BECMG 0922/0924 1400 BR
       
VEPT 091900Z 00000KT 1800 BR NSC 12/10 Q1013 NOSIG
TAF VEPT 091100Z 0912/1018 00000KT 2500 HZ NSC 
     BECMG 0916/0918 1500 HZ/BR/MIFG 
     BECMG 1001/1003 1000 FG/MIFG/BR 
     BECMG 1004/1006 20005KT 1500 BR/MIFG/HZ 
     BECMG 1008/1010 15005KT 3500 HZ 
     BECMG 1016/1018 00000KT 2000 BR/HZ NSC
       
VORY 091630Z 31005KT 1500 HZ FU FEW020 24/22 Q1014 NOSIG
VARK 091500Z 29004KT 6000 NSC 23/07 Q1012
VASU 091600Z 36002KT 6000 NSC 22/17 Q1012
VOTV 091930Z VRB03KT 3000 HZ SCT015 27/24 Q1011 NOSIG
TAF VOTV 091700Z 0918/1024 16005KT 4000 HZ SCT015 BKN090 
     TEMPO 0923/1003 2000 BR FEW025CB 
     BECMG 1005/1006 30010KT 5000 HZ 
     TEMPO 1009/1012 2000 TSRA RA SCT015 FEW025CB BKN090 
     BECMG 1017/1018 16005KT 4000 HZ
       
VOTR 091930Z 01005KT 2000 BR FEW018 24/23 Q1012 NOSIG
TAF VOTR 091700Z 0918/1024 02005KT 1500 BR FEW018 SCT100 
     TEMPO 1000/1003 0800 FG 
     BECMG 1006/1007 07010KT 3000 BR 
     BECMG 1018/1019 02005KT 1500 BR
       
VOTP 091700Z 00000KT 2000 BR FEW020 25/21 Q1014
VAUD 091800Z 00000KT 3000 HZ NSC 14/7 Q1015 NOSIG
VABO 091530Z 07004KT 5000 FU NSC 22/15 Q1012 NOSIG
VOBZ 091630Z 00000KT 2000 HZ FEW020 25/22 Q1013 NOSIG